• Join FlightAware (Why Join?)
  • Login
  • US Flag 
08:27AM EST


 

Airport Tracker/Info


-or-


 

Live Flight TrackerFlight Track Log ✈ UAL4462 ✈ 27-Jun-2013 ✈ KIAH - KIND

Flight Track Log - Related Links

Times and Time Zones

All times are in EDT time to prevent confusion due to time zone crossing. See the UAL4462 flight status page for this flight to view local times or setup timezone preferences in your user account.

Time Position Orientation Groundspeed Altitude Reporting Facility
EDT Latitude Longitude Course Direction KTS MPH feet Rate Location/Type
09:27PM 29.9592 -95.3392 92° East 156 180 700  Level Houston Center
09:27PM 29.9583 -95.3078 92° East 198 228 1,500 1,200 Climbing Houston Center
09:28PM 30.0244 -95.2950 North 263 303 2,700 1,200 Climbing Houston Center
09:29PM 30.0469 -95.2942 North 249 287 3,400 1,560 Climbing Houston Center
09:29PM 30.0958 -95.2958 358° North 249 287 4,300 1,200 Climbing Houston Center
09:30PM 30.1186 -95.2992 353° North 256 295 4,700 1,740 Climbing Houston Center
09:31PM 30.2031 -95.2797 11° North 267 307 7,000 1,920 Climbing Houston Center
09:32PM 30.2742 -95.2431 24° Northeast 278 320 8,700 1,560 Climbing Houston Center
09:33PM 30.3433 -95.2069 24° Northeast 274 315 10,300 1,260 Climbing Houston Center
09:34PM 30.4164 -95.1675 25° Northeast 288 331 11,400 1,020 Climbing Houston Center
09:35PM 30.5008 -95.1222 25° Northeast 306 352 12,500 1,020 Climbing Houston Center
09:36PM 30.5828 -95.0786 25° Northeast 321 369 13,500 960 Climbing Houston Center
09:37PM 30.6653 -95.0286 28° Northeast 333 383 14,500 900 Climbing Houston Center
09:38PM 30.7494 -94.9764 28° Northeast 343 395 15,400 720 Climbing Houston Center
09:39PM 30.8361 -94.9214 29° Northeast 353 406 16,000 540 Climbing Houston Center
09:40PM 30.9267 -94.8644 28° Northeast 369 425 16,600 540 Climbing Houston Center
09:41PM 31.0164 -94.8086 28° Northeast 368 423 17,200 660 Climbing Houston Center
09:42PM 31.1250 -94.7406 28° Northeast 372 428 18,000 660 Climbing Houston Center
09:43PM 31.2114 -94.6814 30° Northeast 376 433 18,600 480 Climbing Houston Center
09:44PM 31.3006 -94.6211 30° Northeast 380 437 19,100 540 Climbing Houston Center
09:45PM 31.3917 -94.5592 30° Northeast 381 438 19,800 600 Climbing Houston Center
09:46PM 31.4833 -94.4956 31° Northeast 384 442 20,400 540 Climbing Houston Center
09:47PM 31.5767 -94.4308 31° Northeast 388 447 21,000 720 Climbing Houston Center
09:48PM 31.6697 -94.3661 31° Northeast 389 448 21,900 1,020 Climbing Houston Center
09:49PM 31.7794 -94.2900 31° Northeast 383 441 23,100 1,020 Climbing Houston Center
09:50PM 31.8675 -94.2281 31° Northeast 371 427 24,000 900 Climbing Houston Center
09:51PM 31.9194 -94.1900 32° Northeast 368 423 24,600 720 Climbing Fort Worth Center
09:52PM 32.0097 -94.1281 30° Northeast 368 423 25,200 600 Climbing Fort Worth Center
09:53PM 32.0936 -94.0564 36° Northeast 368 423 25,800 600 Climbing Fort Worth Center
09:54PM 32.1769 -93.9772 39° Northeast 374 430 26,500 720 Climbing Fort Worth Center
09:55PM 32.2481 -93.9008 42° Northeast 379 436 27,300 900 Climbing Fort Worth Center
09:56PM 32.3292 -93.8192 40° Northeast 384 442 28,300 960 Climbing Fort Worth Center
09:57PM 32.4061 -93.7397 41° Northeast 373 429 29,300 960 Climbing Fort Worth Center
09:58PM 32.4853 -93.6650 39° Northeast 368 423 30,300 960 Climbing Fort Worth Center
09:59PM 32.5644 -93.5903 38° Northeast 368 423 31,300 960 Climbing Fort Worth Center
10:00PM 32.6592 -93.5419 23° Northeast 363 418 32,300 960 Climbing Fort Worth Center
10:01PM 32.7494 -93.4961 23° Northeast 358 412 33,300 840 Climbing Fort Worth Center
10:02PM 32.8419 -93.4475 24° Northeast 358 412 34,000 600 Climbing Fort Worth Center
10:03PM 32.9386 -93.4086 19° North 358 412 34,500 480 Climbing Fort Worth Center
10:04PM 33.0403 -93.3867 10° North 358 412 35,000 240 Climbing Fort Worth Center
10:05PM 33.1481 -93.3619 11° North 371 427 35,000  Level Fort Worth Center
10:07PM 33.4014 -93.3033 11° North 414 476 35,000  Level Memphis Center
10:08PM 33.5106 -93.2772 11° North 434 499 35,000  Level Memphis Center
10:09PM 33.6281 -93.2461 12° North 434 499 35,000  Level Memphis Center
10:10PM 33.7433 -93.2200 11° North 429 494 35,000  Level Memphis Center
10:11PM 33.8492 -93.1658 23° Northeast 417 480 35,000  Level Memphis Center
10:12PM 33.9425 -93.0939 33° Northeast 399 459 35,000  Level Memphis Center
10:13PM 34.0358 -93.0217 33° Northeast 399 459 35,000  Level Memphis Center
10:14PM 34.1294 -92.9417 35° Northeast 399 459 35,000  Level Memphis Center
10:15PM 34.2269 -92.8692 32° Northeast 404 465 35,000  Level Memphis Center
10:16PM 34.3161 -92.7839 38° Northeast 404 465 35,000  Level Memphis Center
10:17PM 34.4139 -92.6936 37° Northeast 404 465 35,000  Level Memphis Center
10:18PM 34.5133 -92.6106 35° Northeast 415 478 35,000  Level Memphis Center
10:19PM 34.6067 -92.5297 35° Northeast 415 478 35,000  Level Memphis Center
10:20PM 34.7019 -92.4461 36° Northeast 415 478 35,000  Level Memphis Center
10:21PM 34.7911 -92.3650 37° Northeast 415 478 35,000  Level Memphis Center
10:22PM 34.8861 -92.2836 35° Northeast 415 478 35,000  Level Memphis Center
10:23PM 34.9814 -92.2022 35° Northeast 415 478 35,000  Level Memphis Center
10:24PM 35.0581 -92.0922 50° Northeast 415 478 35,000  Level Memphis Center
10:25PM 35.1386 -91.9847 47° Northeast 419 482 35,000  Level Memphis Center
10:26PM 35.2172 -91.8694 50° Northeast 431 496 35,000  Level Memphis Center
10:27PM 35.2958 -91.7536 50° Northeast 431 496 35,000  Level Memphis Center
10:28PM 35.3722 -91.6431 50° Northeast 431 496 35,000  Level Memphis Center
10:29PM 35.4503 -91.5344 49° Northeast 426 490 35,000  Level Memphis Center
10:30PM 35.5264 -91.4233 50° Northeast 426 490 35,000  Level Memphis Center
10:31PM 35.6022 -91.3197 48° Northeast 426 490 35,000  Level Memphis Center
10:32PM 35.6783 -91.2056 51° Northeast 426 490 35,000  Level Memphis Center
10:33PM 35.7542 -91.0936 50° Northeast 426 490 35,000  Level Memphis Center
10:34PM 35.8317 -90.9817 49° Northeast 431 496 35,000  Level Memphis Center
10:35PM 35.9094 -90.8669 50° Northeast 431 496 35,000  Level Memphis Center
10:36PM 35.9892 -90.7494 50° Northeast 426 490 35,000  Level Memphis Center
10:37PM 36.0603 -90.6472 49° Northeast 431 496 35,000  Level Memphis Center
10:38PM 36.1378 -90.5292 51° Northeast 431 496 35,000  Level Memphis Center
10:39PM 36.2169 -90.4111 50° Northeast 431 496 35,000  Level Memphis Center
10:40PM 36.2961 -90.2953 50° Northeast 431 496 35,000  Level Memphis Center
10:41PM 36.3753 -90.1792 50° Northeast 431 496 35,000  Level Memphis Center
10:42PM 36.4522 -90.0603 51° Northeast 431 496 35,000  Level Memphis Center
10:43PM 36.5331 -89.9439 49° Northeast 431 496 35,000  Level Memphis Center
10:44PM 36.6119 -89.8269 50° Northeast 431 496 35,000  Level Memphis Center
10:45PM 36.6925 -89.7075 50° Northeast 431 496 35,000  Level Memphis Center
10:46PM 36.7711 -89.5878 51° Northeast 431 496 35,000  Level Memphis Center
10:47PM 36.8494 -89.4675 51° Northeast 442 509 35,000  Level Memphis Center
10:48PM 36.9278 -89.3447 51° Northeast 447 514 35,000  Level Memphis Center
10:49PM 37.0058 -89.2242 51° Northeast 447 514 35,000  Level Memphis Center
10:50PM 37.0881 -89.1061 49° Northeast 447 514 35,000  Level Memphis Center
10:51PM 37.1828 -89.0056 40° Northeast 442 509 35,000  Level Memphis Center
10:52PM 37.2775 -88.9075 39° Northeast 437 503 35,000  Level Memphis Center
10:54PM 37.4261 -88.7417 42° Northeast 441 507 35,000  Level Kansas City Center
10:55PM 37.5394 -88.6225 40° Northeast 441 507 35,000  Level Kansas City Center
10:56PM 37.6344 -88.5211 40° Northeast 441 507 35,000  Level Kansas City Center
10:57PM 37.7289 -88.4197 40° Northeast 442 509 35,000  Level Kansas City Center
10:58PM 37.8231 -88.3169 41° Northeast 446 513 35,000  Level Kansas City Center
10:59PM 37.9181 -88.2161 40° Northeast 444 511 35,000  Level Kansas City Center
11:00PM 38.0119 -88.1147 40° Northeast 442 509 35,000  Level Kansas City Center
11:01PM 38.1022 -88.0133 41° Northeast 434 499 35,000 -420 Level Kansas City Center
11:02PM 38.1939 -87.9133 41° Northeast 431 496 34,200 -1,680 Descending Kansas City Center
11:03PM 38.2894 -87.8106 40° Northeast 440 506 31,700 -2,640 Descending Kansas City Center
11:04PM 38.4031 -87.6872 40° Northeast 441 507 28,600 -2,640 Descending Indianapolis Center
11:05PM 38.4989 -87.5814 41° Northeast 446 513 26,100 -2,520 Descending Indianapolis Center
11:06PM 38.5975 -87.4719 41° Northeast 461 531 23,500 -2,340 Descending Indianapolis Center
11:07PM 38.6933 -87.3650 41° Northeast 453 521 21,400 -1,980 Descending Indianapolis Center
11:08PM 38.7853 -87.2622 41° Northeast 438 504 19,500 -2,040 Descending Indianapolis Center
11:09PM 38.8739 -87.1636 41° Northeast 420 483 17,300 -2,040 Descending Indianapolis Center
11:10PM 38.9608 -87.0667 41° Northeast 411 473 15,400 -1,920 Descending Indianapolis Center
11:11PM 39.0411 -86.9761 41° Northeast 387 445 13,400 -2,040 Descending Indianapolis Center
11:12PM 39.1333 -86.8778 40° Northeast 386 444 11,300 -1,200 Descending Indianapolis Center
11:13PM 39.2258 -86.8119 29° Northeast 380 437 11,000 -180 Descending Indianapolis Center
11:14PM 39.3144 -86.7450 30° Northeast 372 428 11,000 -180 Level Indianapolis Center
11:15PM 39.4025 -86.6797 30° Northeast 368 423 10,700 -720 Descending Indianapolis Center
11:16PM 39.4769 -86.6231 30° Northeast 321 369 9,600 -1,080 Descending Indianapolis Center
11:17PM 39.5428 -86.5739 30° Northeast 285 328 8,500 -840 Descending Indianapolis Center
11:18PM 39.6036 -86.5278 30° Northeast 260 299 8,000 -360 Descending Indianapolis Center
11:19PM 39.6608 -86.4719 37° Northeast 256 295 7,800 -540 Descending Indianapolis Center
11:20PM 39.7136 -86.4092 42° Northeast 257 296 7,000 -420 Descending Indianapolis Center
11:21PM 39.7614 -86.3533 42° Northeast 233 268 7,000 -600 Level Indianapolis Center
11:22PM 39.8136 -86.2950 41° Northeast 237 273 5,900 -1,020 Descending Indianapolis Center
11:23PM 39.8622 -86.2431 39° Northeast 229 264 5,000 -960 Descending Indianapolis Center
11:24PM 39.8578 -86.1744 95° East 241 277 4,000 -1,020 Descending Indianapolis Center